sensor_id;sensor_type;location;lat;lon;timestamp;temperature;humidity
41939;DHT22;23057;48.554;14.454;2023-02-01T00:02:18;0.80;99.90
41939;DHT22;23057;48.554;14.454;2023-02-01T00:04:49;0.80;99.90
41939;DHT22;23057;48.554;14.454;2023-02-01T00:07:20;0.90;99.90
41939;DHT22;23057;48.554;14.454;2023-02-01T00:09:51;1.00;99.90
41939;DHT22;23057;48.554;14.454;2023-02-01T00:12:21;1.00;99.90
41939;DHT22;23057;48.554;14.454;2023-02-01T00:14:52;1.00;99.90
41939;DHT22;23057;48.554;14.454;2023-02-01T00:17:23;1.00;99.90
41939;DHT22;23057;48.554;14.454;2023-02-01T00:19:54;1.00;99.90
41939;DHT22;23057;48.554;14.454;2023-02-01T00:22:25;1.00;99.90
41939;DHT22;23057;48.554;14.454;2023-02-01T00:24:56;1.10;99.90
41939;DHT22;23057;48.554;14.454;2023-02-01T00:27:26;1.10;99.90
41939;DHT22;23057;48.554;14.454;2023-02-01T00:29:57;1.10;99.90
41939;DHT22;23057;48.554;14.454;2023-02-01T00:32:28;1.10;99.90
41939;DHT22;23057;48.554;14.454;2023-02-01T00:34:59;1.10;99.90
41939;DHT22;23057;48.554;14.454;2023-02-01T00:37:29;1.00;99.90
41939;DHT22;23057;48.554;14.454;2023-02-01T00:40:00;1.10;99.90
41939;DHT22;23057;48.554;14.454;2023-02-01T00:42:31;1.10;99.90
41939;DHT22;23057;48.554;14.454;2023-02-01T00:45:01;1.10;99.90
41939;DHT22;23057;48.554;14.454;2023-02-01T00:47:32;1.10;99.90
41939;DHT22;23057;48.554;14.454;2023-02-01T00:50:03;1.10;99.90
41939;DHT22;23057;48.554;14.454;2023-02-01T00:52:34;1.10;99.90
41939;DHT22;23057;48.554;14.454;2023-02-01T00:55:05;1.10;99.90
41939;DHT22;23057;48.554;14.454;2023-02-01T00:57:36;1.10;99.90
41939;DHT22;23057;48.554;14.454;2023-02-01T01:00:07;1.10;99.90
41939;DHT22;23057;48.554;14.454;2023-02-01T01:02:39;1.10;99.90
41939;DHT22;23057;48.554;14.454;2023-02-01T01:05:09;1.10;99.90
41939;DHT22;23057;48.554;14.454;2023-02-01T01:07:40;1.20;99.90
41939;DHT22;23057;48.554;14.454;2023-02-01T01:10:11;1.20;99.90
41939;DHT22;23057;48.554;14.454;2023-02-01T01:12:42;1.20;99.90
41939;DHT22;23057;48.554;14.454;2023-02-01T01:15:13;1.20;99.90
41939;DHT22;23057;48.554;14.454;2023-02-01T01:17:43;1.20;99.90
41939;DHT22;23057;48.554;14.454;2023-02-01T01:20:14;1.30;99.90
41939;DHT22;23057;48.554;14.454;2023-02-01T01:22:47;1.30;99.90
41939;DHT22;23057;48.554;14.454;2023-02-01T01:25:18;1.30;99.90
41939;DHT22;23057;48.554;14.454;2023-02-01T01:27:49;1.30;99.90
41939;DHT22;23057;48.554;14.454;2023-02-01T01:30:20;1.30;99.90
41939;DHT22;23057;48.554;14.454;2023-02-01T01:32:51;1.30;99.90
41939;DHT22;23057;48.554;14.454;2023-02-01T01:35:22;1.30;99.90
41939;DHT22;23057;48.554;14.454;2023-02-01T01:37:53;1.30;99.90
41939;DHT22;23057;48.554;14.454;2023-02-01T01:40:24;1.30;99.90
41939;DHT22;23057;48.554;14.454;2023-02-01T01:42:55;1.30;99.90
41939;DHT22;23057;48.554;14.454;2023-02-01T01:45:31;1.30;99.90
41939;DHT22;23057;48.554;14.454;2023-02-01T01:48:07;1.40;99.90
41939;DHT22;23057;48.554;14.454;2023-02-01T01:51:00;1.40;99.90
41939;DHT22;23057;48.554;14.454;2023-02-01T01:53:46;1.40;99.90
41939;DHT22;23057;48.554;14.454;2023-02-01T01:56:27;1.30;99.90
41939;DHT22;23057;48.554;14.454;2023-02-01T01:59:03;1.30;99.90
41939;DHT22;23057;48.554;14.454;2023-02-01T02:01:35;1.40;99.90
41939;DHT22;23057;48.554;14.454;2023-02-01T02:04:06;1.40;99.90
41939;DHT22;23057;48.554;14.454;2023-02-01T02:06:39;1.40;99.90
41939;DHT22;23057;48.554;14.454;2023-02-01T02:09:18;1.40;99.90
41939;DHT22;23057;48.554;14.454;2023-02-01T02:11:49;1.40;99.90
41939;DHT22;23057;48.554;14.454;2023-02-01T02:14:20;1.40;99.90
41939;DHT22;23057;48.554;14.454;2023-02-01T02:39:08;1.40;99.90
41939;DHT22;23057;48.554;14.454;2023-02-01T02:45:17;1.40;99.90
41939;DHT22;23057;48.554;14.454;2023-02-01T02:48:34;1.30;99.90
41939;DHT22;23057;48.554;14.454;2023-02-01T02:51:27;1.30;99.90
41939;DHT22;23057;48.554;14.454;2023-02-01T02:54:29;1.30;99.90
41939;DHT22;23057;48.554;14.454;2023-02-01T03:00:27;1.40;99.90
41939;DHT22;23057;48.554;14.454;2023-02-01T03:03:21;1.40;99.90
41939;DHT22;23057;48.554;14.454;2023-02-01T03:06:14;1.40;99.90
41939;DHT22;23057;48.554;14.454;2023-02-01T03:08:48;1.40;99.90
41939;DHT22;23057;48.554;14.454;2023-02-01T03:11:24;1.40;99.90
41939;DHT22;23057;48.554;14.454;2023-02-01T03:14:15;1.40;99.90
41939;DHT22;23057;48.554;14.454;2023-02-01T03:16:52;1.40;99.90
41939;DHT22;23057;48.554;14.454;2023-02-01T03:19:39;1.40;99.90
41939;DHT22;23057;48.554;14.454;2023-02-01T03:22:26;1.40;99.90
41939;DHT22;23057;48.554;14.454;2023-02-01T03:25:05;1.30;99.90
41939;DHT22;23057;48.554;14.454;2023-02-01T03:27:51;1.40;99.90
41939;DHT22;23057;48.554;14.454;2023-02-01T03:30:40;1.40;99.90
41939;DHT22;23057;48.554;14.454;2023-02-01T03:33:15;1.40;99.90
41939;DHT22;23057;48.554;14.454;2023-02-01T03:41:44;1.40;99.90
41939;DHT22;23057;48.554;14.454;2023-02-01T03:44:23;1.40;99.90
41939;DHT22;23057;48.554;14.454;2023-02-01T03:47:37;1.30;99.90
41939;DHT22;23057;48.554;14.454;2023-02-01T03:50:14;1.30;99.90
41939;DHT22;23057;48.554;14.454;2023-02-01T03:52:57;1.30;99.90
41939;DHT22;23057;48.554;14.454;2023-02-01T03:55:37;1.30;99.90
41939;DHT22;23057;48.554;14.454;2023-02-01T03:58:15;1.30;99.90
41939;DHT22;23057;48.554;14.454;2023-02-01T04:00:53;1.30;99.90
41939;DHT22;23057;48.554;14.454;2023-02-01T04:03:29;1.30;99.90
41939;DHT22;23057;48.554;14.454;2023-02-01T04:06:00;1.30;99.90
41939;DHT22;23057;48.554;14.454;2023-02-01T04:08:31;1.30;99.90
41939;DHT22;23057;48.554;14.454;2023-02-01T04:11:01;1.40;99.90
41939;DHT22;23057;48.554;14.454;2023-02-01T04:13:32;1.30;99.90
41939;DHT22;23057;48.554;14.454;2023-02-01T04:16:03;1.40;99.90
41939;DHT22;23057;48.554;14.454;2023-02-01T04:18:34;1.40;99.90
41939;DHT22;23057;48.554;14.454;2023-02-01T04:21:05;1.30;99.90
41939;DHT22;23057;48.554;14.454;2023-02-01T04:23:36;1.30;99.90
41939;DHT22;23057;48.554;14.454;2023-02-01T04:26:07;1.30;99.90
41939;DHT22;23057;48.554;14.454;2023-02-01T04:28:37;1.30;99.90
41939;DHT22;23057;48.554;14.454;2023-02-01T04:31:08;1.30;99.90
41939;DHT22;23057;48.554;14.454;2023-02-01T04:33:39;1.30;99.90
41939;DHT22;23057;48.554;14.454;2023-02-01T04:36:10;1.30;99.90
41939;DHT22;23057;48.554;14.454;2023-02-01T04:38:41;1.30;99.90
41939;DHT22;23057;48.554;14.454;2023-02-01T04:41:11;1.40;99.90
41939;DHT22;23057;48.554;14.454;2023-02-01T04:43:42;1.40;99.90
41939;DHT22;23057;48.554;14.454;2023-02-01T04:46:13;1.40;99.90
41939;DHT22;23057;48.554;14.454;2023-02-01T04:48:43;1.40;99.90
41939;DHT22;23057;48.554;14.454;2023-02-01T04:51:14;1.40;99.90
41939;DHT22;23057;48.554;14.454;2023-02-01T04:53:45;1.40;99.90
41939;DHT22;23057;48.554;14.454;2023-02-01T04:56:16;1.40;99.90
41939;DHT22;23057;48.554;14.454;2023-02-01T04:58:47;1.40;99.90
41939;DHT22;23057;48.554;14.454;2023-02-01T05:01:17;1.40;99.90
41939;DHT22;23057;48.554;14.454;2023-02-01T05:03:48;1.40;99.90
41939;DHT22;23057;48.554;14.454;2023-02-01T05:06:19;1.30;99.90
41939;DHT22;23057;48.554;14.454;2023-02-01T05:08:50;1.40;99.90
41939;DHT22;23057;48.554;14.454;2023-02-01T05:11:21;1.40;99.90
41939;DHT22;23057;48.554;14.454;2023-02-01T05:14:10;1.40;99.90
41939;DHT22;23057;48.554;14.454;2023-02-01T05:16:41;1.40;99.90
41939;DHT22;23057;48.554;14.454;2023-02-01T05:19:12;1.30;99.90
41939;DHT22;23057;48.554;14.454;2023-02-01T05:21:43;1.40;99.90
41939;DHT22;23057;48.554;14.454;2023-02-01T05:24:13;1.40;99.90
41939;DHT22;23057;48.554;14.454;2023-02-01T05:26:49;1.40;99.90
41939;DHT22;23057;48.554;14.454;2023-02-01T05:29:20;1.40;99.90
41939;DHT22;23057;48.554;14.454;2023-02-01T05:31:51;1.40;99.90
41939;DHT22;23057;48.554;14.454;2023-02-01T05:34:21;1.40;99.90
41939;DHT22;23057;48.554;14.454;2023-02-01T05:36:52;1.40;99.90
41939;DHT22;23057;48.554;14.454;2023-02-01T05:39:23;1.40;99.90
41939;DHT22;23057;48.554;14.454;2023-02-01T05:41:54;1.40;99.90
41939;DHT22;23057;48.554;14.454;2023-02-01T05:44:25;1.40;99.90
41939;DHT22;23057;48.554;14.454;2023-02-01T05:46:56;1.40;99.90
41939;DHT22;23057;48.554;14.454;2023-02-01T05:49:27;1.50;99.90
41939;DHT22;23057;48.554;14.454;2023-02-01T05:51:57;1.50;99.90
41939;DHT22;23057;48.554;14.454;2023-02-01T05:54:28;1.50;99.90
41939;DHT22;23057;48.554;14.454;2023-02-01T05:56:59;1.60;99.90
41939;DHT22;23057;48.554;14.454;2023-02-01T05:59:30;1.60;99.90
41939;DHT22;23057;48.554;14.454;2023-02-01T06:02:00;1.60;99.90
41939;DHT22;23057;48.554;14.454;2023-02-01T06:04:31;1.60;99.90
41939;DHT22;23057;48.554;14.454;2023-02-01T06:07:02;1.50;99.90
41939;DHT22;23057;48.554;14.454;2023-02-01T06:09:33;1.60;99.90
41939;DHT22;23057;48.554;14.454;2023-02-01T06:12:05;1.50;99.90
41939;DHT22;23057;48.554;14.454;2023-02-01T06:14:36;1.50;99.90
41939;DHT22;23057;48.554;14.454;2023-02-01T06:17:07;1.50;99.90
41939;DHT22;23057;48.554;14.454;2023-02-01T06:19:38;1.50;99.90
41939;DHT22;23057;48.554;14.454;2023-02-01T06:22:10;1.50;99.90
41939;DHT22;23057;48.554;14.454;2023-02-01T06:24:41;1.50;99.90
41939;DHT22;23057;48.554;14.454;2023-02-01T06:27:12;1.50;99.90
41939;DHT22;23057;48.554;14.454;2023-02-01T06:29:43;1.50;99.90
41939;DHT22;23057;48.554;14.454;2023-02-01T06:32:14;1.50;99.90
41939;DHT22;23057;48.554;14.454;2023-02-01T06:34:44;1.50;99.90
41939;DHT22;23057;48.554;14.454;2023-02-01T06:37:15;1.50;99.90
41939;DHT22;23057;48.554;14.454;2023-02-01T06:39:46;1.50;99.90
41939;DHT22;23057;48.554;14.454;2023-02-01T06:42:17;1.50;99.90
41939;DHT22;23057;48.554;14.454;2023-02-01T06:44:48;1.50;99.90
41939;DHT22;23057;48.554;14.454;2023-02-01T06:47:18;1.40;99.90
41939;DHT22;23057;48.554;14.454;2023-02-01T06:49:49;1.40;99.90
41939;DHT22;23057;48.554;14.454;2023-02-01T06:52:20;1.30;99.90
41939;DHT22;23057;48.554;14.454;2023-02-01T06:54:51;1.40;99.90
41939;DHT22;23057;48.554;14.454;2023-02-01T06:57:21;1.40;99.90
41939;DHT22;23057;48.554;14.454;2023-02-01T06:59:52;1.40;99.90
41939;DHT22;23057;48.554;14.454;2023-02-01T07:02:23;1.40;99.90
41939;DHT22;23057;48.554;14.454;2023-02-01T07:04:53;1.40;99.90
41939;DHT22;23057;48.554;14.454;2023-02-01T07:07:24;1.50;99.90
41939;DHT22;23057;48.554;14.454;2023-02-01T07:09:55;1.50;99.90
41939;DHT22;23057;48.554;14.454;2023-02-01T07:12:25;1.50;99.90
41939;DHT22;23057;48.554;14.454;2023-02-01T07:14:56;1.60;99.90
41939;DHT22;23057;48.554;14.454;2023-02-01T07:17:27;1.50;99.90
41939;DHT22;23057;48.554;14.454;2023-02-01T07:19:59;1.50;99.90
41939;DHT22;23057;48.554;14.454;2023-02-01T07:22:31;1.60;99.90
41939;DHT22;23057;48.554;14.454;2023-02-01T07:25:02;1.60;99.90
41939;DHT22;23057;48.554;14.454;2023-02-01T07:27:34;1.60;99.90
41939;DHT22;23057;48.554;14.454;2023-02-01T07:30:06;1.70;99.90
41939;DHT22;23057;48.554;14.454;2023-02-01T07:32:38;1.70;99.90
41939;DHT22;23057;48.554;14.454;2023-02-01T07:35:09;1.60;99.90
41939;DHT22;23057;48.554;14.454;2023-02-01T07:37:40;1.60;99.90
41939;DHT22;23057;48.554;14.454;2023-02-01T07:40:11;1.60;99.90
41939;DHT22;23057;48.554;14.454;2023-02-01T07:42:42;1.60;99.90
41939;DHT22;23057;48.554;14.454;2023-02-01T07:45:13;1.60;99.90
41939;DHT22;23057;48.554;14.454;2023-02-01T07:47:44;1.60;99.90
41939;DHT22;23057;48.554;14.454;2023-02-01T07:50:14;1.60;99.90
41939;DHT22;23057;48.554;14.454;2023-02-01T07:52:46;1.60;99.90
41939;DHT22;23057;48.554;14.454;2023-02-01T07:55:16;1.60;99.90
41939;DHT22;23057;48.554;14.454;2023-02-01T07:57:47;1.50;99.90
41939;DHT22;23057;48.554;14.454;2023-02-01T08:00:19;1.50;99.90
41939;DHT22;23057;48.554;14.454;2023-02-01T08:03:09;1.50;99.90
41939;DHT22;23057;48.554;14.454;2023-02-01T08:05:39;1.60;99.90
41939;DHT22;23057;48.554;14.454;2023-02-01T08:08:10;1.60;99.90
41939;DHT22;23057;48.554;14.454;2023-02-01T08:10:41;1.60;99.90
41939;DHT22;23057;48.554;14.454;2023-02-01T08:13:12;2.00;99.90
41939;DHT22;23057;48.554;14.454;2023-02-01T08:15:42;2.00;99.90
41939;DHT22;23057;48.554;14.454;2023-02-01T08:18:13;2.10;99.90
41939;DHT22;23057;48.554;14.454;2023-02-01T08:20:46;1.80;99.90
41939;DHT22;23057;48.554;14.454;2023-02-01T08:23:18;1.60;99.90
41939;DHT22;23057;48.554;14.454;2023-02-01T08:25:50;1.60;99.90
41939;DHT22;23057;48.554;14.454;2023-02-01T08:28:21;1.60;99.90
41939;DHT22;23057;48.554;14.454;2023-02-01T08:30:52;1.60;99.90
41939;DHT22;23057;48.554;14.454;2023-02-01T08:33:23;1.60;99.90
41939;DHT22;23057;48.554;14.454;2023-02-01T08:35:54;1.60;99.90
41939;DHT22;23057;48.554;14.454;2023-02-01T08:38:24;1.60;99.90
41939;DHT22;23057;48.554;14.454;2023-02-01T08:40:55;1.60;99.90
41939;DHT22;23057;48.554;14.454;2023-02-01T08:43:26;1.50;99.90
41939;DHT22;23057;48.554;14.454;2023-02-01T08:45:57;1.50;99.90
41939;DHT22;23057;48.554;14.454;2023-02-01T08:48:27;1.40;99.90
41939;DHT22;23057;48.554;14.454;2023-02-01T08:51:06;1.40;99.90
41939;DHT22;23057;48.554;14.454;2023-02-01T08:53:40;1.40;99.90
41939;DHT22;23057;48.554;14.454;2023-02-01T08:56:12;1.40;99.90
41939;DHT22;23057;48.554;14.454;2023-02-01T08:58:45;1.40;99.90
41939;DHT22;23057;48.554;14.454;2023-02-01T09:01:16;1.40;99.90
41939;DHT22;23057;48.554;14.454;2023-02-01T09:03:47;1.40;99.90
41939;DHT22;23057;48.554;14.454;2023-02-01T09:06:18;1.40;99.90
41939;DHT22;23057;48.554;14.454;2023-02-01T09:08:49;1.40;99.90
41939;DHT22;23057;48.554;14.454;2023-02-01T09:11:19;1.30;99.90
41939;DHT22;23057;48.554;14.454;2023-02-01T09:13:50;1.40;99.90
41939;DHT22;23057;48.554;14.454;2023-02-01T09:16:21;1.30;99.90
41939;DHT22;23057;48.554;14.454;2023-02-01T09:18:52;1.40;99.90
41939;DHT22;23057;48.554;14.454;2023-02-01T09:21:23;1.40;99.90
41939;DHT22;23057;48.554;14.454;2023-02-01T09:23:54;1.40;99.90
41939;DHT22;23057;48.554;14.454;2023-02-01T09:26:25;1.40;99.90
41939;DHT22;23057;48.554;14.454;2023-02-01T09:28:55;1.50;99.90
41939;DHT22;23057;48.554;14.454;2023-02-01T09:31:26;1.50;99.90
41939;DHT22;23057;48.554;14.454;2023-02-01T09:33:57;1.70;99.90
41939;DHT22;23057;48.554;14.454;2023-02-01T09:36:28;1.80;99.90
41939;DHT22;23057;48.554;14.454;2023-02-01T09:38:59;1.70;99.90
41939;DHT22;23057;48.554;14.454;2023-02-01T09:44:31;1.90;99.90
41939;DHT22;23057;48.554;14.454;2023-02-01T09:47:28;2.10;99.90
41939;DHT22;23057;48.554;14.454;2023-02-01T09:50:01;2.20;99.90
41939;DHT22;23057;48.554;14.454;2023-02-01T09:52:35;2.40;99.90
41939;DHT22;23057;48.554;14.454;2023-02-01T09:55:15;2.60;99.90
41939;DHT22;23057;48.554;14.454;2023-02-01T09:57:58;2.80;99.90
41939;DHT22;23057;48.554;14.454;2023-02-01T10:00:37;3.10;99.90
41939;DHT22;23057;48.554;14.454;2023-02-01T10:03:11;3.30;99.90
41939;DHT22;23057;48.554;14.454;2023-02-01T10:05:47;3.50;99.90
41939;DHT22;23057;48.554;14.454;2023-02-01T10:08:54;3.40;99.90
41939;DHT22;23057;48.554;14.454;2023-02-01T10:11:58;2.90;99.90
41939;DHT22;23057;48.554;14.454;2023-02-01T10:20:31;2.50;99.90
41939;DHT22;23057;48.554;14.454;2023-02-01T10:26:36;2.30;99.90
41939;DHT22;23057;48.554;14.454;2023-02-01T10:29:15;2.10;99.90
41939;DHT22;23057;48.554;14.454;2023-02-01T10:31:50;2.00;99.90
41939;DHT22;23057;48.554;14.454;2023-02-01T10:34:22;1.90;99.90
41939;DHT22;23057;48.554;14.454;2023-02-01T10:37:01;1.80;99.90
41939;DHT22;23057;48.554;14.454;2023-02-01T10:39:49;1.70;99.90
41939;DHT22;23057;48.554;14.454;2023-02-01T10:42:28;1.60;99.90
41939;DHT22;23057;48.554;14.454;2023-02-01T10:45:02;1.50;99.90
41939;DHT22;23057;48.554;14.454;2023-02-01T10:47:34;1.50;99.90
41939;DHT22;23057;48.554;14.454;2023-02-01T10:53:10;1.70;99.90
41939;DHT22;23057;48.554;14.454;2023-02-01T10:55:49;1.80;99.90
41939;DHT22;23057;48.554;14.454;2023-02-01T10:58:30;2.00;99.90
41939;DHT22;23057;48.554;14.454;2023-02-01T11:01:03;2.00;99.90
41939;DHT22;23057;48.554;14.454;2023-02-01T11:06:30;1.90;99.90
41939;DHT22;23057;48.554;14.454;2023-02-01T11:14:18;1.70;99.90
41939;DHT22;23057;48.554;14.454;2023-02-01T11:16:59;1.40;99.90
41939;DHT22;23057;48.554;14.454;2023-02-01T11:20:02;1.30;99.90
41939;DHT22;23057;48.554;14.454;2023-02-01T11:22:52;1.50;99.90
41939;DHT22;23057;48.554;14.454;2023-02-01T11:25:26;1.90;99.90
41939;DHT22;23057;48.554;14.454;2023-02-01T11:27:57;2.10;99.90
41939;DHT22;23057;48.554;14.454;2023-02-01T11:30:38;2.30;99.90
41939;DHT22;23057;48.554;14.454;2023-02-01T11:33:16;2.50;99.90
41939;DHT22;23057;48.554;14.454;2023-02-01T11:35:50;2.20;99.90
41939;DHT22;23057;48.554;14.454;2023-02-01T11:38:29;2.30;99.90
41939;DHT22;23057;48.554;14.454;2023-02-01T11:41:12;2.30;99.90
41939;DHT22;23057;48.554;14.454;2023-02-01T11:43:57;2.20;99.90
41939;DHT22;23057;48.554;14.454;2023-02-01T11:46:32;2.30;99.90
41939;DHT22;23057;48.554;14.454;2023-02-01T11:52:10;2.40;99.90
41939;DHT22;23057;48.554;14.454;2023-02-01T12:04:24;2.20;99.90
41939;DHT22;23057;48.554;14.454;2023-02-01T12:08:12;2.20;99.90
41939;DHT22;23057;48.554;14.454;2023-02-01T12:37:57;1.30;99.90
41939;DHT22;23057;48.554;14.454;2023-02-01T12:44:50;1.30;99.90
41939;DHT22;23057;48.554;14.454;2023-02-01T12:47:25;1.30;99.90
41939;DHT22;23057;48.554;14.454;2023-02-01T12:50:17;1.40;99.90
41939;DHT22;23057;48.554;14.454;2023-02-01T12:52:58;1.30;99.90
41939;DHT22;23057;48.554;14.454;2023-02-01T12:56:02;1.30;99.90
41939;DHT22;23057;48.554;14.454;2023-02-01T12:58:48;1.50;99.90
41939;DHT22;23057;48.554;14.454;2023-02-01T13:01:35;1.70;99.90
41939;DHT22;23057;48.554;14.454;2023-02-01T13:06:57;1.90;99.90
41939;DHT22;23057;48.554;14.454;2023-02-01T13:09:39;2.00;99.90
41939;DHT22;23057;48.554;14.454;2023-02-01T13:12:35;1.90;99.90
41939;DHT22;23057;48.554;14.454;2023-02-01T13:15:16;1.90;99.90
41939;DHT22;23057;48.554;14.454;2023-02-01T13:17:51;2.10;99.90
41939;DHT22;23057;48.554;14.454;2023-02-01T13:20:32;2.30;99.90
41939;DHT22;23057;48.554;14.454;2023-02-01T13:23:22;2.40;99.90
41939;DHT22;23057;48.554;14.454;2023-02-01T13:25:59;2.40;99.90
41939;DHT22;23057;48.554;14.454;2023-02-01T13:40:09;2.20;99.90
41939;DHT22;23057;48.554;14.454;2023-02-01T13:45:49;2.00;99.90
41939;DHT22;23057;48.554;14.454;2023-02-01T13:48:26;2.00;99.90
41939;DHT22;23057;48.554;14.454;2023-02-01T13:51:06;2.00;99.90
41939;DHT22;23057;48.554;14.454;2023-02-01T13:53:38;1.90;99.90
41939;DHT22;23057;48.554;14.454;2023-02-01T13:56:19;1.90;99.90
41939;DHT22;23057;48.554;14.454;2023-02-01T13:58:54;1.80;99.90
41939;DHT22;23057;48.554;14.454;2023-02-01T14:03:58;1.80;99.90
41939;DHT22;23057;48.554;14.454;2023-02-01T14:06:35;1.80;99.90
41939;DHT22;23057;48.554;14.454;2023-02-01T14:09:17;1.80;99.90
41939;DHT22;23057;48.554;14.454;2023-02-01T14:15:21;1.70;99.90
41939;DHT22;23057;48.554;14.454;2023-02-01T14:17:57;1.70;99.90
41939;DHT22;23057;48.554;14.454;2023-02-01T14:20:41;1.70;99.90
41939;DHT22;23057;48.554;14.454;2023-02-01T14:23:16;1.80;99.90
41939;DHT22;23057;48.554;14.454;2023-02-01T14:26:02;1.80;99.90
41939;DHT22;23057;48.554;14.454;2023-02-01T14:28:42;1.70;99.90
41939;DHT22;23057;48.554;14.454;2023-02-01T14:34:21;1.80;99.90
41939;DHT22;23057;48.554;14.454;2023-02-01T14:37:26;1.80;99.90
41939;DHT22;23057;48.554;14.454;2023-02-01T14:40:13;1.70;99.90
41939;DHT22;23057;48.554;14.454;2023-02-01T14:42:57;1.70;99.90
41939;DHT22;23057;48.554;14.454;2023-02-01T14:50:39;1.70;99.90
41939;DHT22;23057;48.554;14.454;2023-02-01T14:53:16;1.70;99.90
41939;DHT22;23057;48.554;14.454;2023-02-01T14:56:04;1.60;99.90
41939;DHT22;23057;48.554;14.454;2023-02-01T15:01:33;1.50;99.90
41939;DHT22;23057;48.554;14.454;2023-02-01T15:04:10;1.50;99.90
41939;DHT22;23057;48.554;14.454;2023-02-01T15:09:34;1.60;99.90
41939;DHT22;23057;48.554;14.454;2023-02-01T15:12:15;1.70;99.90
41939;DHT22;23057;48.554;14.454;2023-02-01T15:17:51;1.80;99.90
41939;DHT22;23057;48.554;14.454;2023-02-01T15:20:33;1.90;99.90
41939;DHT22;23057;48.554;14.454;2023-02-01T15:23:04;1.90;99.90
41939;DHT22;23057;48.554;14.454;2023-02-01T15:25:47;1.90;99.90
41939;DHT22;23057;48.554;14.454;2023-02-01T15:28:17;1.80;99.90
41939;DHT22;23057;48.554;14.454;2023-02-01T15:31:01;1.80;99.90
41939;DHT22;23057;48.554;14.454;2023-02-01T15:33:35;1.80;99.90
41939;DHT22;23057;48.554;14.454;2023-02-01T15:36:09;1.80;99.90
41939;DHT22;23057;48.554;14.454;2023-02-01T15:38:47;1.70;99.90
41939;DHT22;23057;48.554;14.454;2023-02-01T15:41:19;1.70;99.90
41939;DHT22;23057;48.554;14.454;2023-02-01T15:46:36;1.70;99.90
41939;DHT22;23057;48.554;14.454;2023-02-01T15:49:37;1.80;99.90
41939;DHT22;23057;48.554;14.454;2023-02-01T15:52:21;1.80;99.90
41939;DHT22;23057;48.554;14.454;2023-02-01T15:58:17;1.80;99.90
41939;DHT22;23057;48.554;14.454;2023-02-01T16:00:56;1.80;99.90
41939;DHT22;23057;48.554;14.454;2023-02-01T16:03:36;1.70;99.90
41939;DHT22;23057;48.554;14.454;2023-02-01T16:06:12;1.70;99.90
41939;DHT22;23057;48.554;14.454;2023-02-01T16:12:01;1.70;99.90
41939;DHT22;23057;48.554;14.454;2023-02-01T16:14:32;1.70;99.90
41939;DHT22;23057;48.554;14.454;2023-02-01T16:17:02;1.70;99.90
41939;DHT22;23057;48.554;14.454;2023-02-01T16:19:33;1.70;99.90
41939;DHT22;23057;48.554;14.454;2023-02-01T16:22:04;1.80;99.90
41939;DHT22;23057;48.554;14.454;2023-02-01T16:24:35;1.80;99.90
41939;DHT22;23057;48.554;14.454;2023-02-01T16:27:05;1.70;99.90
41939;DHT22;23057;48.554;14.454;2023-02-01T16:29:37;1.70;99.90
41939;DHT22;23057;48.554;14.454;2023-02-01T16:32:15;1.70;99.90
41939;DHT22;23057;48.554;14.454;2023-02-01T16:34:49;1.70;99.90
41939;DHT22;23057;48.554;14.454;2023-02-01T16:37:21;1.70;99.90
41939;DHT22;23057;48.554;14.454;2023-02-01T16:39:54;1.70;99.90
41939;DHT22;23057;48.554;14.454;2023-02-01T16:42:25;1.70;99.90
41939;DHT22;23057;48.554;14.454;2023-02-01T16:44:55;1.60;99.90
41939;DHT22;23057;48.554;14.454;2023-02-01T16:47:26;1.60;99.90
41939;DHT22;23057;48.554;14.454;2023-02-01T16:49:57;1.70;99.90
41939;DHT22;23057;48.554;14.454;2023-02-01T16:52:27;1.70;99.90
41939;DHT22;23057;48.554;14.454;2023-02-01T16:54:58;1.60;99.90
41939;DHT22;23057;48.554;14.454;2023-02-01T16:57:29;1.70;99.90
41939;DHT22;23057;48.554;14.454;2023-02-01T17:00:00;1.70;99.90
41939;DHT22;23057;48.554;14.454;2023-02-01T17:02:34;1.60;99.90
41939;DHT22;23057;48.554;14.454;2023-02-01T17:05:05;1.70;99.90
41939;DHT22;23057;48.554;14.454;2023-02-01T17:07:37;1.70;99.90
41939;DHT22;23057;48.554;14.454;2023-02-01T17:10:17;1.70;99.90
41939;DHT22;23057;48.554;14.454;2023-02-01T17:12:54;1.70;99.90
41939;DHT22;23057;48.554;14.454;2023-02-01T17:15:27;1.70;99.90
41939;DHT22;23057;48.554;14.454;2023-02-01T17:18:05;1.80;99.90
41939;DHT22;23057;48.554;14.454;2023-02-01T17:20:39;1.70;99.90
41939;DHT22;23057;48.554;14.454;2023-02-01T17:23:12;1.70;99.90
41939;DHT22;23057;48.554;14.454;2023-02-01T17:25:43;1.70;99.90
41939;DHT22;23057;48.554;14.454;2023-02-01T17:28:14;1.60;99.90
41939;DHT22;23057;48.554;14.454;2023-02-01T17:30:45;1.60;99.90
41939;DHT22;23057;48.554;14.454;2023-02-01T17:33:19;1.60;99.90
41939;DHT22;23057;48.554;14.454;2023-02-01T17:35:58;1.60;99.90
41939;DHT22;23057;48.554;14.454;2023-02-01T17:38:28;1.60;99.90
41939;DHT22;23057;48.554;14.454;2023-02-01T17:40:59;1.50;99.90
41939;DHT22;23057;48.554;14.454;2023-02-01T17:43:30;1.50;99.90
41939;DHT22;23057;48.554;14.454;2023-02-01T17:46:03;1.50;99.90
41939;DHT22;23057;48.554;14.454;2023-02-01T17:48:44;1.60;99.90
41939;DHT22;23057;48.554;14.454;2023-02-01T17:51:16;1.60;99.90
41939;DHT22;23057;48.554;14.454;2023-02-01T17:53:50;1.60;99.90
41939;DHT22;23057;48.554;14.454;2023-02-01T17:56:21;1.60;99.90
41939;DHT22;23057;48.554;14.454;2023-02-01T17:58:54;1.60;99.90
41939;DHT22;23057;48.554;14.454;2023-02-01T18:01:25;1.60;99.90
41939;DHT22;23057;48.554;14.454;2023-02-01T18:03:56;1.70;99.90
41939;DHT22;23057;48.554;14.454;2023-02-01T18:06:27;1.70;99.90
41939;DHT22;23057;48.554;14.454;2023-02-01T18:09:03;1.60;99.90
41939;DHT22;23057;48.554;14.454;2023-02-01T18:11:34;1.60;99.90
41939;DHT22;23057;48.554;14.454;2023-02-01T18:14:05;1.50;99.90
41939;DHT22;23057;48.554;14.454;2023-02-01T18:16:35;1.40;99.90
41939;DHT22;23057;48.554;14.454;2023-02-01T18:19:07;1.30;99.90
41939;DHT22;23057;48.554;14.454;2023-02-01T18:21:39;1.30;99.90
41939;DHT22;23057;48.554;14.454;2023-02-01T18:24:13;1.20;99.90
41939;DHT22;23057;48.554;14.454;2023-02-01T18:26:46;1.20;99.90
41939;DHT22;23057;48.554;14.454;2023-02-01T18:29:17;1.20;99.90
41939;DHT22;23057;48.554;14.454;2023-02-01T18:31:47;1.20;99.90
41939;DHT22;23057;48.554;14.454;2023-02-01T18:34:19;1.30;99.90
41939;DHT22;23057;48.554;14.454;2023-02-01T18:36:51;1.30;99.90
41939;DHT22;23057;48.554;14.454;2023-02-01T18:39:23;1.30;99.90
41939;DHT22;23057;48.554;14.454;2023-02-01T18:41:53;1.30;99.90
41939;DHT22;23057;48.554;14.454;2023-02-01T18:44:24;1.40;99.90
41939;DHT22;23057;48.554;14.454;2023-02-01T18:46:55;1.40;99.90
41939;DHT22;23057;48.554;14.454;2023-02-01T18:49:26;1.40;99.90
41939;DHT22;23057;48.554;14.454;2023-02-01T18:51:57;1.30;99.90